EGAA/BFS METAR and TAF weather

Enter ICAO airport designator
Station Type Date Time Source
EGAA METAR 2018/12/12 22:50 UTC NOAA

EGAA 122250Z 13014KT 9999 OVC022 07/03 Q1009


Station Type Date Time Source
EGAA Decoded METAR 2018/12/12 22:50 UTC NOAA

Belfast / Aldergrove Airport, United Kingdom (EGAA) 54-39N 006-13W 0M
Dec 12, 2018 - 05:50 PM EST / 2018.12.12 2250 UTC
Wind: from the SE (130 degrees) at 16 MPH (14 KT):0
Visibility: greater than 7 mile(s):0
Sky conditions: overcast
Temperature: 44 F (7 C)
Dew Point: 37 F (3 C)
Relative Humidity: 75%
Pressure (altimeter): 29.80 in. Hg (1009 hPa)
ob: EGAA 122250Z 13014KT 9999 OVC022 07/03 Q1009
cycle: 23

Station Type Date Time Source
EGAA TAF 2018/12/12 18:09 UTC NOAA

TAF TAF EGAA 121700Z 1218/1318 13020G30KT 9999 FEW014 BKN025
TEMPO 1218/1302 7000 RA -RADZ BKN012 PROB30
TEMPO 1218/1220 BKN009
BECMG 1309/1312 13015KT


Example: see airport list